sensor_id;sensor_type;location;lat;lon;timestamp;P1;durP1;ratioP1;P2;durP2;ratioP2
6203;SDS011;3135;42.602;23.468;2024-03-25T00:01:18;0.10;;;0.10;;
6203;SDS011;3135;42.602;23.468;2024-03-25T00:03:43;0.10;;;0.10;;
6203;SDS011;3135;42.602;23.468;2024-03-25T00:06:09;0.50;;;0.35;;
6203;SDS011;3135;42.602;23.468;2024-03-25T00:08:35;0.10;;;0.10;;
6203;SDS011;3135;42.602;23.468;2024-03-25T00:11:00;0.00;;;0.00;;
6203;SDS011;3135;42.602;23.468;2024-03-25T00:13:26;0.10;;;0.07;;
6203;SDS011;3135;42.602;23.468;2024-03-25T00:15:51;0.20;;;0.20;;
6203;SDS011;3135;42.602;23.468;2024-03-25T00:18:16;0.10;;;0.10;;
6203;SDS011;3135;42.602;23.468;2024-03-25T00:20:42;0.10;;;0.10;;
6203;SDS011;3135;42.602;23.468;2024-03-25T00:23:08;0.10;;;0.10;;
6203;SDS011;3135;42.602;23.468;2024-03-25T00:25:33;0.00;;;0.00;;
6203;SDS011;3135;42.602;23.468;2024-03-25T00:27:59;0.00;;;0.00;;
6203;SDS011;3135;42.602;23.468;2024-03-25T00:30:24;0.10;;;0.10;;
6203;SDS011;3135;42.602;23.468;2024-03-25T00:32:49;0.10;;;0.10;;
6203;SDS011;3135;42.602;23.468;2024-03-25T00:35:15;0.20;;;0.00;;
6203;SDS011;3135;42.602;23.468;2024-03-25T00:37:41;0.10;;;0.10;;
6203;SDS011;3135;42.602;23.468;2024-03-25T00:40:06;0.00;;;0.00;;
6203;SDS011;3135;42.602;23.468;2024-03-25T00:42:33;0.10;;;0.10;;
6203;SDS011;3135;42.602;23.468;2024-03-25T00:44:58;0.10;;;0.10;;
6203;SDS011;3135;42.602;23.468;2024-03-25T00:47:24;0.10;;;0.00;;
6203;SDS011;3135;42.602;23.468;2024-03-25T00:49:50;0.10;;;0.00;;
6203;SDS011;3135;42.602;23.468;2024-03-25T00:52:15;0.00;;;0.00;;
6203;SDS011;3135;42.602;23.468;2024-03-25T00:54:41;0.10;;;0.10;;
6203;SDS011;3135;42.602;23.468;2024-03-25T00:57:06;0.10;;;0.10;;
6203;SDS011;3135;42.602;23.468;2024-03-25T00:59:33;0.00;;;0.00;;
6203;SDS011;3135;42.602;23.468;2024-03-25T01:01:59;0.10;;;0.00;;
6203;SDS011;3135;42.602;23.468;2024-03-25T01:04:24;0.20;;;0.00;;
6203;SDS011;3135;42.602;23.468;2024-03-25T01:06:49;0.00;;;0.00;;
6203;SDS011;3135;42.602;23.468;2024-03-25T01:09:15;0.50;;;0.00;;
6203;SDS011;3135;42.602;23.468;2024-03-25T01:11:41;0.10;;;0.00;;
6203;SDS011;3135;42.602;23.468;2024-03-25T01:14:06;0.60;;;0.05;;
6203;SDS011;3135;42.602;23.468;2024-03-25T01:16:32;0.60;;;0.00;;
6203;SDS011;3135;42.602;23.468;2024-03-25T01:18:57;0.00;;;0.00;;
6203;SDS011;3135;42.602;23.468;2024-03-25T01:21:24;0.10;;;0.10;;
6203;SDS011;3135;42.602;23.468;2024-03-25T01:23:49;0.00;;;0.00;;
6203;SDS011;3135;42.602;23.468;2024-03-25T01:26:15;0.10;;;0.10;;
6203;SDS011;3135;42.602;23.468;2024-03-25T01:28:41;0.03;;;0.03;;
6203;SDS011;3135;42.602;23.468;2024-03-25T01:31:07;0.10;;;0.10;;
6203;SDS011;3135;42.602;23.468;2024-03-25T01:33:33;0.00;;;0.00;;
6203;SDS011;3135;42.602;23.468;2024-03-25T01:35:59;0.60;;;0.10;;
6203;SDS011;3135;42.602;23.468;2024-03-25T01:38:24;0.10;;;0.10;;
6203;SDS011;3135;42.602;23.468;2024-03-25T01:40:50;0.10;;;0.10;;
6203;SDS011;3135;42.602;23.468;2024-03-25T01:43:15;0.20;;;0.10;;
6203;SDS011;3135;42.602;23.468;2024-03-25T01:45:41;0.20;;;0.10;;
6203;SDS011;3135;42.602;23.468;2024-03-25T01:48:07;0.10;;;0.10;;
6203;SDS011;3135;42.602;23.468;2024-03-25T01:50:35;0.13;;;0.10;;
6203;SDS011;3135;42.602;23.468;2024-03-25T01:53:03;0.00;;;0.00;;
6203;SDS011;3135;42.602;23.468;2024-03-25T01:55:29;0.10;;;0.10;;
6203;SDS011;3135;42.602;23.468;2024-03-25T01:57:57;0.20;;;0.10;;
6203;SDS011;3135;42.602;23.468;2024-03-25T02:00:24;0.50;;;0.13;;
6203;SDS011;3135;42.602;23.468;2024-03-25T02:02:51;0.50;;;0.15;;
6203;SDS011;3135;42.602;23.468;2024-03-25T02:05:17;0.00;;;0.00;;
6203;SDS011;3135;42.602;23.468;2024-03-25T02:07:44;0.10;;;0.10;;
6203;SDS011;3135;42.602;23.468;2024-03-25T02:10:10;0.00;;;0.00;;
6203;SDS011;3135;42.602;23.468;2024-03-25T02:12:36;0.98;;;0.40;;
6203;SDS011;3135;42.602;23.468;2024-03-25T02:15:03;1.02;;;0.50;;
6203;SDS011;3135;42.602;23.468;2024-03-25T02:17:30;0.70;;;0.10;;
6203;SDS011;3135;42.602;23.468;2024-03-25T02:19:55;2.00;;;0.10;;
6203;SDS011;3135;42.602;23.468;2024-03-25T02:22:21;0.40;;;0.20;;
6203;SDS011;3135;42.602;23.468;2024-03-25T02:24:46;0.10;;;0.10;;
6203;SDS011;3135;42.602;23.468;2024-03-25T02:27:16;0.40;;;0.20;;
6203;SDS011;3135;42.602;23.468;2024-03-25T02:29:42;0.20;;;0.20;;
6203;SDS011;3135;42.602;23.468;2024-03-25T02:32:07;0.50;;;0.50;;
6203;SDS011;3135;42.602;23.468;2024-03-25T02:34:39;0.25;;;0.25;;
6203;SDS011;3135;42.602;23.468;2024-03-25T02:37:08;0.28;;;0.20;;
6203;SDS011;3135;42.602;23.468;2024-03-25T02:39:34;0.10;;;0.10;;
6203;SDS011;3135;42.602;23.468;2024-03-25T02:42:01;0.32;;;0.10;;
6203;SDS011;3135;42.602;23.468;2024-03-25T02:44:26;0.43;;;0.20;;
6203;SDS011;3135;42.602;23.468;2024-03-25T02:46:52;0.20;;;0.20;;
6203;SDS011;3135;42.602;23.468;2024-03-25T02:49:17;0.70;;;0.10;;
6203;SDS011;3135;42.602;23.468;2024-03-25T02:51:43;0.73;;;0.30;;
6203;SDS011;3135;42.602;23.468;2024-03-25T02:54:08;0.30;;;0.30;;
6203;SDS011;3135;42.602;23.468;2024-03-25T02:56:34;0.20;;;0.20;;
6203;SDS011;3135;42.602;23.468;2024-03-25T02:59:01;0.10;;;0.10;;
6203;SDS011;3135;42.602;23.468;2024-03-25T03:01:27;0.20;;;0.20;;
6203;SDS011;3135;42.602;23.468;2024-03-25T03:03:52;0.80;;;0.40;;
6203;SDS011;3135;42.602;23.468;2024-03-25T03:06:18;0.30;;;0.30;;
6203;SDS011;3135;42.602;23.468;2024-03-25T03:08:44;1.17;;;0.20;;
6203;SDS011;3135;42.602;23.468;2024-03-25T03:11:09;0.20;;;0.20;;
6203;SDS011;3135;42.602;23.468;2024-03-25T03:13:35;0.20;;;0.20;;
6203;SDS011;3135;42.602;23.468;2024-03-25T03:16:00;0.47;;;0.20;;
6203;SDS011;3135;42.602;23.468;2024-03-25T03:18:25;0.10;;;0.10;;
6203;SDS011;3135;42.602;23.468;2024-03-25T03:20:51;0.30;;;0.20;;
6203;SDS011;3135;42.602;23.468;2024-03-25T03:23:16;0.10;;;0.10;;
6203;SDS011;3135;42.602;23.468;2024-03-25T03:25:42;0.13;;;0.13;;
6203;SDS011;3135;42.602;23.468;2024-03-25T03:28:08;0.20;;;0.20;;
6203;SDS011;3135;42.602;23.468;2024-03-25T03:30:33;0.32;;;0.30;;
6203;SDS011;3135;42.602;23.468;2024-03-25T03:32:58;0.30;;;0.30;;
6203;SDS011;3135;42.602;23.468;2024-03-25T03:35:24;0.30;;;0.30;;
6203;SDS011;3135;42.602;23.468;2024-03-25T03:37:49;0.30;;;0.30;;
6203;SDS011;3135;42.602;23.468;2024-03-25T03:40:15;0.43;;;0.40;;
6203;SDS011;3135;42.602;23.468;2024-03-25T03:42:40;0.50;;;0.40;;
6203;SDS011;3135;42.602;23.468;2024-03-25T03:45:06;1.10;;;0.50;;
6203;SDS011;3135;42.602;23.468;2024-03-25T03:47:33;0.40;;;0.40;;
6203;SDS011;3135;42.602;23.468;2024-03-25T03:49:58;1.57;;;0.70;;
6203;SDS011;3135;42.602;23.468;2024-03-25T03:52:24;0.73;;;0.63;;
6203;SDS011;3135;42.602;23.468;2024-03-25T03:54:49;2.78;;;1.13;;
6203;SDS011;3135;42.602;23.468;2024-03-25T03:57:15;1.20;;;0.85;;
6203;SDS011;3135;42.602;23.468;2024-03-25T03:59:41;0.70;;;0.70;;
6203;SDS011;3135;42.602;23.468;2024-03-25T04:02:07;0.90;;;0.63;;
6203;SDS011;3135;42.602;23.468;2024-03-25T04:04:33;1.42;;;0.93;;
6203;SDS011;3135;42.602;23.468;2024-03-25T04:07:00;1.35;;;1.08;;
6203;SDS011;3135;42.602;23.468;2024-03-25T04:09:27;1.20;;;0.95;;
6203;SDS011;3135;42.602;23.468;2024-03-25T04:11:54;1.87;;;1.30;;
6203;SDS011;3135;42.602;23.468;2024-03-25T04:14:20;3.10;;;1.13;;
6203;SDS011;3135;42.602;23.468;2024-03-25T04:16:45;1.03;;;0.93;;
6203;SDS011;3135;42.602;23.468;2024-03-25T04:19:12;3.00;;;1.20;;
6203;SDS011;3135;42.602;23.468;2024-03-25T04:21:38;1.77;;;1.00;;
6203;SDS011;3135;42.602;23.468;2024-03-25T04:24:04;1.45;;;1.20;;
6203;SDS011;3135;42.602;23.468;2024-03-25T04:26:31;1.80;;;1.10;;
6203;SDS011;3135;42.602;23.468;2024-03-25T04:28:56;1.63;;;1.10;;
6203;SDS011;3135;42.602;23.468;2024-03-25T04:31:22;1.73;;;1.15;;
6203;SDS011;3135;42.602;23.468;2024-03-25T04:33:47;3.50;;;1.30;;
6203;SDS011;3135;42.602;23.468;2024-03-25T04:36:13;2.40;;;1.40;;
6203;SDS011;3135;42.602;23.468;2024-03-25T04:38:38;1.63;;;1.40;;
6203;SDS011;3135;42.602;23.468;2024-03-25T04:41:04;1.90;;;1.43;;
6203;SDS011;3135;42.602;23.468;2024-03-25T04:43:30;1.75;;;1.50;;
6203;SDS011;3135;42.602;23.468;2024-03-25T04:45:55;2.90;;;1.80;;
6203;SDS011;3135;42.602;23.468;2024-03-25T04:48:20;4.07;;;1.97;;
6203;SDS011;3135;42.602;23.468;2024-03-25T04:50:46;3.17;;;2.00;;
6203;SDS011;3135;42.602;23.468;2024-03-25T04:53:12;4.10;;;1.60;;
6203;SDS011;3135;42.602;23.468;2024-03-25T04:55:37;3.23;;;2.23;;
6203;SDS011;3135;42.602;23.468;2024-03-25T04:58:03;4.80;;;2.60;;
6203;SDS011;3135;42.602;23.468;2024-03-25T05:00:28;4.57;;;2.73;;
6203;SDS011;3135;42.602;23.468;2024-03-25T05:02:54;4.20;;;2.43;;
6203;SDS011;3135;42.602;23.468;2024-03-25T05:05:20;5.07;;;2.70;;
6203;SDS011;3135;42.602;23.468;2024-03-25T05:07:46;4.78;;;2.70;;
6203;SDS011;3135;42.602;23.468;2024-03-25T05:10:11;5.10;;;2.55;;
6203;SDS011;3135;42.602;23.468;2024-03-25T05:12:37;5.18;;;2.95;;
6203;SDS011;3135;42.602;23.468;2024-03-25T05:15:04;5.07;;;2.55;;
6203;SDS011;3135;42.602;23.468;2024-03-25T05:17:30;7.40;;;3.35;;
6203;SDS011;3135;42.602;23.468;2024-03-25T05:19:56;7.77;;;3.20;;
6203;SDS011;3135;42.602;23.468;2024-03-25T05:22:21;5.27;;;3.07;;
6203;SDS011;3135;42.602;23.468;2024-03-25T05:24:47;6.83;;;2.93;;
6203;SDS011;3135;42.602;23.468;2024-03-25T05:27:12;7.53;;;3.30;;
6203;SDS011;3135;42.602;23.468;2024-03-25T05:29:37;5.63;;;2.83;;
6203;SDS011;3135;42.602;23.468;2024-03-25T05:32:03;5.23;;;2.87;;
6203;SDS011;3135;42.602;23.468;2024-03-25T05:34:29;6.78;;;3.08;;
6203;SDS011;3135;42.602;23.468;2024-03-25T05:36:55;5.70;;;3.00;;
6203;SDS011;3135;42.602;23.468;2024-03-25T05:39:21;7.50;;;4.53;;
6203;SDS011;3135;42.602;23.468;2024-03-25T05:41:47;5.93;;;3.23;;
6203;SDS011;3135;42.602;23.468;2024-03-25T05:44:12;7.72;;;3.38;;
6203;SDS011;3135;42.602;23.468;2024-03-25T05:46:38;6.50;;;3.23;;
6203;SDS011;3135;42.602;23.468;2024-03-25T05:49:04;6.43;;;3.20;;
6203;SDS011;3135;42.602;23.468;2024-03-25T05:51:30;7.70;;;3.50;;
6203;SDS011;3135;42.602;23.468;2024-03-25T05:53:58;8.93;;;3.45;;
6203;SDS011;3135;42.602;23.468;2024-03-25T05:56:24;7.60;;;3.50;;
6203;SDS011;3135;42.602;23.468;2024-03-25T05:58:55;6.45;;;3.60;;
6203;SDS011;3135;42.602;23.468;2024-03-25T06:01:24;6.32;;;3.45;;
6203;SDS011;3135;42.602;23.468;2024-03-25T06:03:50;7.83;;;3.83;;
6203;SDS011;3135;42.602;23.468;2024-03-25T06:06:16;8.20;;;3.67;;
6203;SDS011;3135;42.602;23.468;2024-03-25T06:08:42;7.10;;;3.75;;
6203;SDS011;3135;42.602;23.468;2024-03-25T06:11:07;6.32;;;3.28;;
6203;SDS011;3135;42.602;23.468;2024-03-25T06:13:33;7.57;;;3.97;;
6203;SDS011;3135;42.602;23.468;2024-03-25T06:15:58;8.67;;;4.00;;
6203;SDS011;3135;42.602;23.468;2024-03-25T06:18:24;8.40;;;3.70;;
6203;SDS011;3135;42.602;23.468;2024-03-25T06:20:49;6.55;;;3.88;;
6203;SDS011;3135;42.602;23.468;2024-03-25T06:23:21;6.60;;;3.38;;
6203;SDS011;3135;42.602;23.468;2024-03-25T06:25:51;9.40;;;4.20;;
6203;SDS011;3135;42.602;23.468;2024-03-25T06:28:17;7.63;;;3.40;;
6203;SDS011;3135;42.602;23.468;2024-03-25T06:30:45;8.93;;;4.00;;
6203;SDS011;3135;42.602;23.468;2024-03-25T06:33:32;6.45;;;3.30;;
6203;SDS011;3135;42.602;23.468;2024-03-25T06:36:16;7.40;;;3.53;;
6203;SDS011;3135;42.602;23.468;2024-03-25T06:38:42;5.95;;;3.40;;
6203;SDS011;3135;42.602;23.468;2024-03-25T06:41:08;8.00;;;3.50;;
6203;SDS011;3135;42.602;23.468;2024-03-25T06:43:34;5.77;;;3.30;;
6203;SDS011;3135;42.602;23.468;2024-03-25T06:45:59;8.57;;;3.55;;
6203;SDS011;3135;42.602;23.468;2024-03-25T06:48:25;8.23;;;4.20;;
6203;SDS011;3135;42.602;23.468;2024-03-25T06:50:57;9.30;;;4.03;;
6203;SDS011;3135;42.602;23.468;2024-03-25T06:53:23;9.97;;;4.23;;
6203;SDS011;3135;42.602;23.468;2024-03-25T06:55:52;8.25;;;4.05;;
6203;SDS011;3135;42.602;23.468;2024-03-25T06:58:19;9.57;;;4.15;;
6203;SDS011;3135;42.602;23.468;2024-03-25T07:00:45;9.07;;;3.63;;
6203;SDS011;3135;42.602;23.468;2024-03-25T07:03:10;7.05;;;3.92;;
6203;SDS011;3135;42.602;23.468;2024-03-25T07:05:36;8.55;;;3.83;;
6203;SDS011;3135;42.602;23.468;2024-03-25T07:08:01;7.97;;;4.13;;
6203;SDS011;3135;42.602;23.468;2024-03-25T07:10:27;7.07;;;3.80;;
6203;SDS011;3135;42.602;23.468;2024-03-25T07:12:53;8.63;;;4.43;;
6203;SDS011;3135;42.602;23.468;2024-03-25T07:15:18;7.00;;;3.93;;
6203;SDS011;3135;42.602;23.468;2024-03-25T07:17:43;8.67;;;4.67;;
6203;SDS011;3135;42.602;23.468;2024-03-25T07:20:09;8.00;;;3.83;;
6203;SDS011;3135;42.602;23.468;2024-03-25T07:22:35;8.40;;;3.80;;
6203;SDS011;3135;42.602;23.468;2024-03-25T07:25:00;7.03;;;3.83;;
6203;SDS011;3135;42.602;23.468;2024-03-25T07:27:25;9.33;;;4.30;;
6203;SDS011;3135;42.602;23.468;2024-03-25T07:29:51;6.87;;;3.90;;
6203;SDS011;3135;42.602;23.468;2024-03-25T07:32:16;7.43;;;3.73;;
6203;SDS011;3135;42.602;23.468;2024-03-25T07:34:42;9.60;;;4.10;;
6203;SDS011;3135;42.602;23.468;2024-03-25T07:37:07;7.87;;;4.13;;
6203;SDS011;3135;42.602;23.468;2024-03-25T07:39:32;8.23;;;3.93;;
6203;SDS011;3135;42.602;23.468;2024-03-25T07:41:58;7.63;;;4.00;;
6203;SDS011;3135;42.602;23.468;2024-03-25T07:44:24;4.65;;;3.30;;
6203;SDS011;3135;42.602;23.468;2024-03-25T07:46:50;7.73;;;3.77;;
6203;SDS011;3135;42.602;23.468;2024-03-25T07:49:15;5.83;;;3.73;;
6203;SDS011;3135;42.602;23.468;2024-03-25T07:51:40;7.18;;;4.03;;
6203;SDS011;3135;42.602;23.468;2024-03-25T07:54:06;7.30;;;3.58;;
6203;SDS011;3135;42.602;23.468;2024-03-25T07:56:33;7.05;;;3.55;;
6203;SDS011;3135;42.602;23.468;2024-03-25T07:59:02;8.13;;;3.97;;
6203;SDS011;3135;42.602;23.468;2024-03-25T08:01:27;7.65;;;3.90;;
6203;SDS011;3135;42.602;23.468;2024-03-25T08:03:53;7.03;;;3.95;;
6203;SDS011;3135;42.602;23.468;2024-03-25T08:06:18;7.50;;;3.60;;
6203;SDS011;3135;42.602;23.468;2024-03-25T08:08:46;7.22;;;3.75;;
6203;SDS011;3135;42.602;23.468;2024-03-25T08:11:12;7.07;;;3.60;;
6203;SDS011;3135;42.602;23.468;2024-03-25T08:13:37;7.40;;;3.95;;
6203;SDS011;3135;42.602;23.468;2024-03-25T08:16:03;7.07;;;3.70;;
6203;SDS011;3135;42.602;23.468;2024-03-25T08:18:28;6.03;;;3.70;;
6203;SDS011;3135;42.602;23.468;2024-03-25T08:20:54;6.83;;;3.87;;
6203;SDS011;3135;42.602;23.468;2024-03-25T08:23:19;6.03;;;3.90;;
6203;SDS011;3135;42.602;23.468;2024-03-25T08:25:45;3.88;;;2.78;;
6203;SDS011;3135;42.602;23.468;2024-03-25T08:28:10;5.78;;;3.08;;
6203;SDS011;3135;42.602;23.468;2024-03-25T08:30:36;7.25;;;3.90;;
6203;SDS011;3135;42.602;23.468;2024-03-25T08:33:01;5.78;;;3.60;;
6203;SDS011;3135;42.602;23.468;2024-03-25T08:35:27;6.07;;;3.33;;
6203;SDS011;3135;42.602;23.468;2024-03-25T08:37:53;5.90;;;3.37;;
6203;SDS011;3135;42.602;23.468;2024-03-25T08:40:18;5.23;;;3.20;;
6203;SDS011;3135;42.602;23.468;2024-03-25T08:42:43;4.97;;;2.93;;
6203;SDS011;3135;42.602;23.468;2024-03-25T08:45:09;4.37;;;3.17;;
6203;SDS011;3135;42.602;23.468;2024-03-25T08:47:35;5.72;;;3.60;;
6203;SDS011;3135;42.602;23.468;2024-03-25T08:50:00;6.70;;;3.60;;
6203;SDS011;3135;42.602;23.468;2024-03-25T08:52:26;5.63;;;3.27;;
6203;SDS011;3135;42.602;23.468;2024-03-25T08:54:51;5.63;;;3.70;;
6203;SDS011;3135;42.602;23.468;2024-03-25T08:57:17;4.40;;;3.07;;
6203;SDS011;3135;42.602;23.468;2024-03-25T08:59:42;5.03;;;3.33;;
6203;SDS011;3135;42.602;23.468;2024-03-25T09:02:08;6.47;;;3.30;;
6203;SDS011;3135;42.602;23.468;2024-03-25T09:04:33;4.10;;;3.13;;
6203;SDS011;3135;42.602;23.468;2024-03-25T09:06:59;3.53;;;2.90;;
6203;SDS011;3135;42.602;23.468;2024-03-25T09:09:24;4.95;;;3.25;;
6203;SDS011;3135;42.602;23.468;2024-03-25T09:12:08;5.45;;;3.33;;
6203;SDS011;3135;42.602;23.468;2024-03-25T09:14:34;4.30;;;3.30;;
6203;SDS011;3135;42.602;23.468;2024-03-25T09:16:59;3.97;;;2.80;;
6203;SDS011;3135;42.602;23.468;2024-03-25T09:19:25;6.13;;;3.00;;
6203;SDS011;3135;42.602;23.468;2024-03-25T09:21:50;4.78;;;2.92;;
6203;SDS011;3135;42.602;23.468;2024-03-25T09:24:16;4.45;;;2.95;;
6203;SDS011;3135;42.602;23.468;2024-03-25T09:26:42;6.38;;;3.75;;
6203;SDS011;3135;42.602;23.468;2024-03-25T09:29:08;6.97;;;3.50;;
6203;SDS011;3135;42.602;23.468;2024-03-25T09:31:33;5.87;;;3.10;;
6203;SDS011;3135;42.602;23.468;2024-03-25T09:33:59;4.93;;;3.13;;
6203;SDS011;3135;42.602;23.468;2024-03-25T09:36:24;5.07;;;3.33;;
6203;SDS011;3135;42.602;23.468;2024-03-25T09:38:50;5.53;;;3.40;;
6203;SDS011;3135;42.602;23.468;2024-03-25T09:41:17;7.50;;;3.67;;
6203;SDS011;3135;42.602;23.468;2024-03-25T09:43:43;5.07;;;3.43;;
6203;SDS011;3135;42.602;23.468;2024-03-25T09:46:12;4.32;;;3.00;;
6203;SDS011;3135;42.602;23.468;2024-03-25T09:48:38;5.63;;;3.17;;
6203;SDS011;3135;42.602;23.468;2024-03-25T09:51:06;4.78;;;3.00;;
6203;SDS011;3135;42.602;23.468;2024-03-25T09:53:33;4.63;;;2.90;;
6203;SDS011;3135;42.602;23.468;2024-03-25T09:55:58;14.30;;;5.20;;
6203;SDS011;3135;42.602;23.468;2024-03-25T09:58:27;5.90;;;3.58;;
6203;SDS011;3135;42.602;23.468;2024-03-25T10:00:53;4.25;;;3.00;;
6203;SDS011;3135;42.602;23.468;2024-03-25T10:03:39;5.40;;;3.60;;
6203;SDS011;3135;42.602;23.468;2024-03-25T10:06:05;4.50;;;3.13;;
6203;SDS011;3135;42.602;23.468;2024-03-25T10:08:31;4.20;;;3.30;;
6203;SDS011;3135;42.602;23.468;2024-03-25T10:10:56;4.83;;;3.30;;
6203;SDS011;3135;42.602;23.468;2024-03-25T10:13:23;3.88;;;2.92;;
6203;SDS011;3135;42.602;23.468;2024-03-25T10:15:48;3.93;;;2.80;;
6203;SDS011;3135;42.602;23.468;2024-03-25T10:18:14;5.40;;;3.13;;
6203;SDS011;3135;42.602;23.468;2024-03-25T10:20:52;3.67;;;2.87;;
6203;SDS011;3135;42.602;23.468;2024-03-25T10:23:24;4.50;;;3.00;;
6203;SDS011;3135;42.602;23.468;2024-03-25T10:25:53;4.80;;;2.88;;
6203;SDS011;3135;42.602;23.468;2024-03-25T10:28:18;3.23;;;2.50;;
6203;SDS011;3135;42.602;23.468;2024-03-25T10:30:44;3.40;;;2.40;;
6203;SDS011;3135;42.602;23.468;2024-03-25T10:33:09;3.60;;;2.40;;
6203;SDS011;3135;42.602;23.468;2024-03-25T10:35:36;4.57;;;2.97;;
6203;SDS011;3135;42.602;23.468;2024-03-25T10:38:08;2.97;;;2.55;;
6203;SDS011;3135;42.602;23.468;2024-03-25T10:40:38;3.43;;;2.67;;
6203;SDS011;3135;42.602;23.468;2024-03-25T10:45:43;2.58;;;2.38;;
6203;SDS011;3135;42.602;23.468;2024-03-25T10:48:12;2.40;;;2.20;;
6203;SDS011;3135;42.602;23.468;2024-03-25T10:50:43;2.47;;;2.15;;
6203;SDS011;3135;42.602;23.468;2024-03-25T10:53:10;3.05;;;2.30;;
6203;SDS011;3135;42.602;23.468;2024-03-25T10:55:36;3.50;;;2.45;;
6203;SDS011;3135;42.602;23.468;2024-03-25T10:58:02;3.33;;;2.17;;
6203;SDS011;3135;42.602;23.468;2024-03-25T11:00:29;2.58;;;2.10;;
6203;SDS011;3135;42.602;23.468;2024-03-25T11:02:55;3.13;;;2.10;;
6203;SDS011;3135;42.602;23.468;2024-03-25T11:05:21;2.83;;;2.00;;
6203;SDS011;3135;42.602;23.468;2024-03-25T11:07:47;2.10;;;1.90;;
6203;SDS011;3135;42.602;23.468;2024-03-25T11:10:13;2.83;;;2.20;;
6203;SDS011;3135;42.602;23.468;2024-03-25T11:12:40;2.17;;;1.80;;
6203;SDS011;3135;42.602;23.468;2024-03-25T11:15:07;1.85;;;1.70;;
6203;SDS011;3135;42.602;23.468;2024-03-25T11:17:33;3.20;;;1.70;;
6203;SDS011;3135;42.602;23.468;2024-03-25T11:20:06;2.17;;;1.98;;
6203;SDS011;3135;42.602;23.468;2024-03-25T11:22:35;3.75;;;2.00;;
6203;SDS011;3135;42.602;23.468;2024-03-25T11:25:05;2.95;;;1.83;;
6203;SDS011;3135;42.602;23.468;2024-03-25T11:27:36;2.05;;;1.65;;
6203;SDS011;3135;42.602;23.468;2024-03-25T11:30:02;1.75;;;1.60;;
6203;SDS011;3135;42.602;23.468;2024-03-25T11:32:40;2.10;;;1.90;;
6203;SDS011;3135;42.602;23.468;2024-03-25T11:35:11;3.60;;;2.10;;
6203;SDS011;3135;42.602;23.468;2024-03-25T11:37:41;3.93;;;2.00;;
6203;SDS011;3135;42.602;23.468;2024-03-25T11:40:10;2.90;;;2.20;;
6203;SDS011;3135;42.602;23.468;2024-03-25T11:42:39;1.85;;;1.75;;
6203;SDS011;3135;42.602;23.468;2024-03-25T11:45:13;3.17;;;1.80;;
6203;SDS011;3135;42.602;23.468;2024-03-25T11:47:41;2.00;;;1.80;;
6203;SDS011;3135;42.602;23.468;2024-03-25T11:50:11;2.20;;;1.42;;
6203;SDS011;3135;42.602;23.468;2024-03-25T11:52:38;1.35;;;1.25;;
6203;SDS011;3135;42.602;23.468;2024-03-25T11:55:04;1.60;;;1.50;;
6203;SDS011;3135;42.602;23.468;2024-03-25T11:57:30;1.50;;;1.40;;
6203;SDS011;3135;42.602;23.468;2024-03-25T11:59:57;1.65;;;1.40;;
6203;SDS011;3135;42.602;23.468;2024-03-25T12:02:23;1.77;;;1.40;;
6203;SDS011;3135;42.602;23.468;2024-03-25T12:04:49;1.88;;;1.70;;
6203;SDS011;3135;42.602;23.468;2024-03-25T12:07:15;2.93;;;1.70;;
6203;SDS011;3135;42.602;23.468;2024-03-25T12:09:41;1.63;;;1.53;;
6203;SDS011;3135;42.602;23.468;2024-03-25T12:12:36;1.70;;;1.60;;
6203;SDS011;3135;42.602;23.468;2024-03-25T12:15:04;2.83;;;2.07;;
6203;SDS011;3135;42.602;23.468;2024-03-25T12:17:31;2.13;;;1.80;;
6203;SDS011;3135;42.602;23.468;2024-03-25T12:19:59;2.75;;;2.10;;
6203;SDS011;3135;42.602;23.468;2024-03-25T12:22:28;2.93;;;2.10;;
6203;SDS011;3135;42.602;23.468;2024-03-25T12:24:57;1.85;;;1.70;;
6203;SDS011;3135;42.602;23.468;2024-03-25T12:27:24;2.47;;;1.65;;
6203;SDS011;3135;42.602;23.468;2024-03-25T12:35:10;1.50;;;1.40;;
6203;SDS011;3135;42.602;23.468;2024-03-25T12:37:43;1.80;;;1.52;;
6203;SDS011;3135;42.602;23.468;2024-03-25T12:40:11;1.58;;;1.40;;
6203;SDS011;3135;42.602;23.468;2024-03-25T12:42:38;1.70;;;1.60;;
6203;SDS011;3135;42.602;23.468;2024-03-25T12:45:06;1.60;;;1.50;;
6203;SDS011;3135;42.602;23.468;2024-03-25T12:47:32;3.20;;;2.13;;
6203;SDS011;3135;42.602;23.468;2024-03-25T12:49:58;3.28;;;1.63;;
6203;SDS011;3135;42.602;23.468;2024-03-25T12:52:25;1.75;;;1.65;;
6203;SDS011;3135;42.602;23.468;2024-03-25T12:54:50;1.83;;;1.67;;
6203;SDS011;3135;42.602;23.468;2024-03-25T12:57:16;1.70;;;1.60;;
6203;SDS011;3135;42.602;23.468;2024-03-25T12:59:41;3.33;;;2.30;;
6203;SDS011;3135;42.602;23.468;2024-03-25T13:02:08;2.30;;;1.50;;
6203;SDS011;3135;42.602;23.468;2024-03-25T13:04:35;1.77;;;1.50;;
6203;SDS011;3135;42.602;23.468;2024-03-25T13:07:02;1.75;;;1.65;;
6203;SDS011;3135;42.602;23.468;2024-03-25T13:09:28;1.60;;;1.50;;
6203;SDS011;3135;42.602;23.468;2024-03-25T13:11:55;2.93;;;1.53;;
6203;SDS011;3135;42.602;23.468;2024-03-25T13:14:21;2.03;;;1.45;;
6203;SDS011;3135;42.602;23.468;2024-03-25T13:16:47;2.30;;;1.80;;
6203;SDS011;3135;42.602;23.468;2024-03-25T13:19:13;2.40;;;1.65;;
6203;SDS011;3135;42.602;23.468;2024-03-25T13:21:38;1.63;;;1.50;;
6203;SDS011;3135;42.602;23.468;2024-03-25T13:24:04;1.40;;;1.30;;
6203;SDS011;3135;42.602;23.468;2024-03-25T13:26:30;1.70;;;1.40;;
6203;SDS011;3135;42.602;23.468;2024-03-25T13:28:55;1.30;;;1.20;;
6203;SDS011;3135;42.602;23.468;2024-03-25T13:31:21;1.50;;;1.23;;
6203;SDS011;3135;42.602;23.468;2024-03-25T13:33:46;1.30;;;1.20;;
6203;SDS011;3135;42.602;23.468;2024-03-25T13:36:12;2.90;;;1.43;;
6203;SDS011;3135;42.602;23.468;2024-03-25T13:38:37;1.90;;;1.30;;
6203;SDS011;3135;42.602;23.468;2024-03-25T13:41:03;1.70;;;1.60;;
6203;SDS011;3135;42.602;23.468;2024-03-25T13:43:29;1.50;;;1.40;;
6203;SDS011;3135;42.602;23.468;2024-03-25T13:45:55;1.60;;;1.50;;
6203;SDS011;3135;42.602;23.468;2024-03-25T13:48:20;2.20;;;1.47;;
6203;SDS011;3135;42.602;23.468;2024-03-25T13:50:46;1.60;;;1.40;;
6203;SDS011;3135;42.602;23.468;2024-03-25T13:53:11;1.50;;;1.30;;
6203;SDS011;3135;42.602;23.468;2024-03-25T13:55:37;1.50;;;1.40;;
6203;SDS011;3135;42.602;23.468;2024-03-25T13:58:02;2.23;;;1.30;;
6203;SDS011;3135;42.602;23.468;2024-03-25T14:00:30;2.70;;;1.30;;
6203;SDS011;3135;42.602;23.468;2024-03-25T14:02:56;2.03;;;1.57;;
6203;SDS011;3135;42.602;23.468;2024-03-25T14:05:22;1.25;;;1.15;;
6203;SDS011;3135;42.602;23.468;2024-03-25T14:07:48;1.50;;;1.40;;
6203;SDS011;3135;42.602;23.468;2024-03-25T14:10:14;1.50;;;1.40;;
6203;SDS011;3135;42.602;23.468;2024-03-25T14:12:40;1.60;;;1.50;;
6203;SDS011;3135;42.602;23.468;2024-03-25T14:15:06;1.37;;;1.27;;
6203;SDS011;3135;42.602;23.468;2024-03-25T14:17:32;1.38;;;1.27;;
6203;SDS011;3135;42.602;23.468;2024-03-25T14:19:57;1.43;;;1.30;;
6203;SDS011;3135;42.602;23.468;2024-03-25T14:22:23;1.20;;;1.10;;
6203;SDS011;3135;42.602;23.468;2024-03-25T14:24:48;1.23;;;1.00;;
6203;SDS011;3135;42.602;23.468;2024-03-25T14:27:14;1.15;;;0.82;;
6203;SDS011;3135;42.602;23.468;2024-03-25T14:29:40;1.10;;;0.90;;
6203;SDS011;3135;42.602;23.468;2024-03-25T14:32:06;0.83;;;0.80;;
6203;SDS011;3135;42.602;23.468;2024-03-25T14:34:32;6.32;;;4.03;;
6203;SDS011;3135;42.602;23.468;2024-03-25T14:36:58;1.05;;;0.85;;
6203;SDS011;3135;42.602;23.468;2024-03-25T14:39:26;1.08;;;0.80;;
6203;SDS011;3135;42.602;23.468;2024-03-25T14:41:51;1.10;;;0.87;;
6203;SDS011;3135;42.602;23.468;2024-03-25T14:44:17;0.73;;;0.60;;
6203;SDS011;3135;42.602;23.468;2024-03-25T14:46:42;1.80;;;0.70;;
6203;SDS011;3135;42.602;23.468;2024-03-25T14:49:07;0.87;;;0.80;;
6203;SDS011;3135;42.602;23.468;2024-03-25T14:51:33;0.70;;;0.70;;
6203;SDS011;3135;42.602;23.468;2024-03-25T14:53:59;0.70;;;0.70;;
6203;SDS011;3135;42.602;23.468;2024-03-25T14:56:25;0.80;;;0.80;;
6203;SDS011;3135;42.602;23.468;2024-03-25T14:58:50;0.67;;;0.67;;
6203;SDS011;3135;42.602;23.468;2024-03-25T15:01:16;2.37;;;0.87;;
6203;SDS011;3135;42.602;23.468;2024-03-25T15:03:41;2.83;;;0.90;;